RYR916 EGPH-LYBE
Flight info
| Callsign | RYR916 |
|---|---|
| Flight time | 2h 45m |
| Altitude | 35000 |
| Route | TLA Y96 AGPED DCT ERKIT L602 OTR L90 DOLAS DCT NAVPI DCT DODEN DCT TABUM DCT BOMBI T104 HAREM Z74 LAMPU DCT NOMBO Y161 MAH DCT LATLO DCT OBEDI DCT VAMET DCT LAKIK DCT RIGMU |
| Aircraft | B738/M-SDE2E3FGHIRWXY/LB1 |
Departure
| Time | 2026-04-21 13:58 |
|---|---|
| Airport | Edinburgh Airport (EGPH) |
Arrival
| Time | 2026-04-21 16:44 |
|---|---|
| Airport | Belgrade Nikola Tesla Airport (LYBE) |
| Time | Latitude | Longitude | Altitude | Speed | Heading |
|---|---|---|---|---|---|
| 2026-04-21 13:27 | 55.94613 | -3.36625 | 105 ft | 0 kts | 88° |
| 2026-04-21 13:31 | 55.94613 | -3.36626 | 105 ft | 0 kts | 88° |
| 2026-04-21 13:45 | 55.94613 | -3.36627 | 105 ft | 0 kts | 88° |
| 2026-04-21 13:50 | 55.94613 | -3.36653 | 105 ft | 3 kts | 88° |
| 2026-04-21 13:51 | 55.94612 | -3.36687 | 105 ft | 3 kts | 88° |
| 2026-04-21 13:51 | 55.94611 | -3.36719 | 105 ft | 3 kts | 88° |
| 2026-04-21 13:51 | 55.94611 | -3.36741 | 106 ft | 0 kts | 88° |
| 2026-04-21 13:52 | 55.94611 | -3.36739 | 106 ft | 0 kts | 87° |
| 2026-04-21 13:52 | 55.94613 | -3.36737 | 106 ft | 0 kts | 55° |
| 2026-04-21 13:53 | 55.94615 | -3.36738 | 106 ft | 0 kts | 17° |
| 2026-04-21 13:53 | 55.94616 | -3.36738 | 106 ft | 1 kts | 15° |
| 2026-04-21 13:53 | 55.94645 | -3.36740 | 106 ft | 7 kts | 357° |
| 2026-04-21 13:54 | 55.94710 | -3.36745 | 105 ft | 12 kts | 358° |
| 2026-04-21 13:54 | 55.94805 | -3.36788 | 102 ft | 16 kts | 355° |
| 2026-04-21 13:54 | 55.94904 | -3.36813 | 104 ft | 14 kts | 331° |
| 2026-04-21 13:54 | 55.94908 | -3.36941 | 103 ft | 12 kts | 234° |
| 2026-04-21 13:55 | 55.94865 | -3.37065 | 104 ft | 12 kts | 240° |
| 2026-04-21 13:55 | 55.94816 | -3.37209 | 104 ft | 17 kts | 239° |
| 2026-04-21 13:55 | 55.94746 | -3.37417 | 108 ft | 23 kts | 238° |
| 2026-04-21 13:55 | 55.94652 | -3.37694 | 111 ft | 26 kts | 238° |
| 2026-04-21 13:56 | 55.94561 | -3.37964 | 112 ft | 24 kts | 240° |
| 2026-04-21 13:56 | 55.94469 | -3.38234 | 109 ft | 30 kts | 239° |
| 2026-04-21 13:56 | 55.94362 | -3.38556 | 116 ft | 25 kts | 238° |
| 2026-04-21 13:56 | 55.94341 | -3.38619 | 117 ft | 1 kts | 240° |
| 2026-04-21 13:57 | 55.94298 | -3.38747 | 114 ft | 20 kts | 239° |
| 2026-04-21 13:57 | 55.94347 | -3.38935 | 118 ft | 18 kts | 329° |
| 2026-04-21 13:57 | 55.94437 | -3.38914 | 114 ft | 12 kts | 54° |
| 2026-04-21 13:57 | 55.94537 | -3.38611 | 113 ft | 62 kts | 59° |
| 2026-04-21 13:58 | 55.94887 | -3.37582 | 112 ft | 131 kts | 58° |
| 2026-04-21 13:58 | 55.95460 | -3.35933 | 313 ft | 173 kts | 57° |
| 2026-04-21 13:58 | 55.96181 | -3.34041 | 733 ft | 195 kts | 51° |
| 2026-04-21 13:58 | 55.97137 | -3.32169 | 1178 ft | 208 kts | 43° |
| 2026-04-21 13:59 | 55.98336 | -3.30599 | 1705 ft | 219 kts | 39° |
| 2026-04-21 13:59 | 55.99486 | -3.28742 | 2149 ft | 222 kts | 46° |
| 2026-04-21 13:59 | 56.00641 | -3.26822 | 2597 ft | 231 kts | 45° |
| 2026-04-21 13:59 | 56.01862 | -3.24849 | 3039 ft | 240 kts | 45° |
| 2026-04-21 14:00 | 56.03089 | -3.22875 | 3509 ft | 236 kts | 46° |
| 2026-04-21 14:00 | 56.04307 | -3.20883 | 3987 ft | 238 kts | 50° |
| 2026-04-21 14:00 | 56.05088 | -3.18330 | 4445 ft | 235 kts | 78° |
| 2026-04-21 14:00 | 56.05234 | -3.15427 | 4935 ft | 236 kts | 93° |
| 2026-04-21 14:01 | 56.05067 | -3.12505 | 5427 ft | 237 kts | 96° |
| 2026-04-21 14:01 | 56.04587 | -3.09692 | 5865 ft | 242 kts | 120° |
| 2026-04-21 14:01 | 56.03513 | -3.07353 | 6352 ft | 247 kts | 135° |
| 2026-04-21 14:01 | 56.02157 | -3.05427 | 6841 ft | 251 kts | 140° |
| 2026-04-21 14:02 | 56.01224 | -3.04188 | 7158 ft | 253 kts | 140° |
| 2026-04-21 14:02 | 55.99329 | -3.01661 | 7752 ft | 256 kts | 140° |
| 2026-04-21 14:02 | 55.97880 | -2.99791 | 8201 ft | 259 kts | 147° |
| 2026-04-21 14:03 | 55.94274 | -2.99459 | 9117 ft | 277 kts | 198° |
| 2026-04-21 14:03 | 55.92533 | -3.00951 | 9621 ft | 279 kts | 202° |
| 2026-04-21 14:03 | 55.90796 | -3.02504 | 10106 ft | 280 kts | 202° |
| 2026-04-21 14:03 | 55.89041 | -3.04039 | 10579 ft | 282 kts | 201° |
| 2026-04-21 14:04 | 55.87266 | -3.05547 | 11017 ft | 283 kts | 201° |
| 2026-04-21 14:04 | 55.85478 | -3.07032 | 11471 ft | 285 kts | 200° |
| 2026-04-21 14:04 | 55.83662 | -3.08516 | 11928 ft | 288 kts | 200° |
| 2026-04-21 14:04 | 55.81833 | -3.09995 | 12388 ft | 292 kts | 200° |
| 2026-04-21 14:05 | 55.79962 | -3.11496 | 12886 ft | 306 kts | 200° |
| 2026-04-21 14:05 | 55.77951 | -3.13102 | 13396 ft | 320 kts | 200° |
| 2026-04-21 14:05 | 55.75909 | -3.14731 | 13891 ft | 332 kts | 201° |
| 2026-04-21 14:05 | 55.73761 | -3.16442 | 14403 ft | 345 kts | 200° |
| 2026-04-21 14:06 | 55.71540 | -3.18207 | 14855 ft | 356 kts | 201° |
| 2026-04-21 14:06 | 55.69240 | -3.20032 | 15314 ft | 367 kts | 200° |
| 2026-04-21 14:06 | 55.66879 | -3.21904 | 15776 ft | 377 kts | 200° |
| 2026-04-21 14:06 | 55.64455 | -3.23824 | 16238 ft | 386 kts | 201° |
| 2026-04-21 14:07 | 55.61974 | -3.25787 | 16698 ft | 395 kts | 201° |
| 2026-04-21 14:07 | 55.59445 | -3.27777 | 17184 ft | 403 kts | 199° |
| 2026-04-21 14:07 | 55.56735 | -3.29026 | 17620 ft | 403 kts | 179° |
| 2026-04-21 14:07 | 55.53972 | -3.28439 | 18145 ft | 401 kts | 160° |
| 2026-04-21 14:08 | 55.51471 | -3.26303 | 18632 ft | 401 kts | 141° |
| 2026-04-21 14:08 | 55.49479 | -3.22883 | 19095 ft | 401 kts | 124° |
| 2026-04-21 14:08 | 55.48141 | -3.18577 | 19542 ft | 403 kts | 108° |
| 2026-04-21 14:08 | 55.47536 | -3.13756 | 20021 ft | 404 kts | 99° |
| 2026-04-21 14:09 | 55.47062 | -3.08850 | 20471 ft | 408 kts | 99° |
| 2026-04-21 14:09 | 55.46558 | -3.03912 | 20925 ft | 411 kts | 101° |
| 2026-04-21 14:09 | 55.45797 | -2.99044 | 21381 ft | 414 kts | 109° |
| 2026-04-21 14:09 | 55.44576 | -2.94435 | 21856 ft | 417 kts | 118° |
| 2026-04-21 14:10 | 55.43127 | -2.89996 | 22330 ft | 419 kts | 119° |
| 2026-04-21 14:10 | 55.41676 | -2.85542 | 22819 ft | 421 kts | 118° |
| 2026-04-21 14:10 | 55.40226 | -2.81039 | 23311 ft | 422 kts | 118° |
| 2026-04-21 14:10 | 55.38792 | -2.76539 | 23819 ft | 423 kts | 118° |
| 2026-04-21 14:11 | 55.37352 | -2.72012 | 24289 ft | 424 kts | 118° |
| 2026-04-21 14:11 | 55.35910 | -2.67486 | 24706 ft | 425 kts | 118° |
| 2026-04-21 14:11 | 55.34456 | -2.62960 | 25141 ft | 425 kts | 118° |
| 2026-04-21 14:11 | 55.32997 | -2.58438 | 25566 ft | 426 kts | 118° |
| 2026-04-21 14:12 | 55.31533 | -2.53908 | 26021 ft | 426 kts | 119° |
| 2026-04-21 14:12 | 55.30074 | -2.49396 | 26476 ft | 426 kts | 118° |
| 2026-04-21 14:12 | 55.28612 | -2.44882 | 26934 ft | 425 kts | 119° |
| 2026-04-21 14:12 | 55.27147 | -2.40374 | 27403 ft | 425 kts | 119° |
| 2026-04-21 14:13 | 55.25680 | -2.35875 | 27872 ft | 425 kts | 119° |
| 2026-04-21 14:13 | 55.24213 | -2.31390 | 28370 ft | 423 kts | 120° |
| 2026-04-21 14:13 | 55.22745 | -2.26905 | 28848 ft | 423 kts | 120° |
| 2026-04-21 14:13 | 55.21282 | -2.22443 | 29362 ft | 422 kts | 120° |
| 2026-04-21 14:14 | 55.19822 | -2.17995 | 29875 ft | 421 kts | 120° |
| 2026-04-21 14:14 | 55.18382 | -2.13616 | 30385 ft | 420 kts | 120° |
| 2026-04-21 14:14 | 55.16909 | -2.09138 | 30862 ft | 418 kts | 120° |
| 2026-04-21 14:14 | 55.15477 | -2.04800 | 31292 ft | 417 kts | 120° |
| 2026-04-21 14:15 | 55.14021 | -2.00427 | 31724 ft | 415 kts | 122° |
| 2026-04-21 14:15 | 55.12293 | -1.96408 | 32165 ft | 414 kts | 133° |
| 2026-04-21 14:15 | 55.10212 | -1.92956 | 32627 ft | 412 kts | 141° |
| 2026-04-21 14:15 | 55.07857 | -1.90120 | 33091 ft | 410 kts | 148° |
| 2026-04-21 14:16 | 55.05420 | -1.87563 | 33560 ft | 407 kts | 149° |
| 2026-04-21 14:16 | 55.02988 | -1.85058 | 34048 ft | 404 kts | 149° |
| 2026-04-21 14:16 | 55.00571 | -1.82574 | 34452 ft | 404 kts | 149° |
| 2026-04-21 14:16 | 54.98146 | -1.80072 | 34660 ft | 406 kts | 150° |
| 2026-04-21 14:17 | 54.95713 | -1.77549 | 34915 ft | 407 kts | 149° |
| 2026-04-21 14:17 | 54.93276 | -1.75014 | 35117 ft | 409 kts | 150° |
| 2026-04-21 14:17 | 54.90831 | -1.72465 | 35363 ft | 411 kts | 149° |
| 2026-04-21 14:17 | 54.88377 | -1.69906 | 35517 ft | 414 kts | 149° |
| 2026-04-21 14:18 | 54.85882 | -1.67307 | 35506 ft | 421 kts | 149° |
| 2026-04-21 14:18 | 54.81656 | -1.62910 | 35503 ft | 432 kts | 149° |
| 2026-04-21 14:19 | 54.76422 | -1.57477 | 35497 ft | 445 kts | 149° |
| 2026-04-21 14:19 | 54.71040 | -1.51910 | 35479 ft | 457 kts | 149° |
| 2026-04-21 14:20 | 54.65525 | -1.46226 | 35508 ft | 467 kts | 149° |
| 2026-04-21 14:20 | 54.59879 | -1.40424 | 35491 ft | 477 kts | 149° |
| 2026-04-21 14:21 | 54.54120 | -1.34525 | 35479 ft | 485 kts | 150° |
| 2026-04-21 14:21 | 54.48316 | -1.28600 | 35477 ft | 484 kts | 150° |
| 2026-04-21 14:22 | 54.42501 | -1.22683 | 35479 ft | 486 kts | 150° |
| 2026-04-21 14:22 | 54.36673 | -1.16773 | 35461 ft | 486 kts | 150° |
| 2026-04-21 14:23 | 54.30838 | -1.10874 | 35446 ft | 488 kts | 150° |
| 2026-04-21 14:23 | 54.24985 | -1.04979 | 35474 ft | 488 kts | 149° |
| 2026-04-21 14:24 | 54.19127 | -0.99096 | 35455 ft | 489 kts | 150° |
| 2026-04-21 14:24 | 54.13255 | -0.93219 | 35446 ft | 490 kts | 150° |
| 2026-04-21 14:25 | 54.07351 | -0.87328 | 35460 ft | 493 kts | 150° |
| 2026-04-21 14:25 | 54.01855 | -0.80356 | 35461 ft | 495 kts | 134° |
| 2026-04-21 14:26 | 53.97575 | -0.71335 | 35456 ft | 493 kts | 126° |
| 2026-04-21 14:26 | 53.93474 | -0.62053 | 35451 ft | 490 kts | 127° |
| 2026-04-21 14:27 | 53.89346 | -0.52894 | 35451 ft | 488 kts | 127° |
| 2026-04-21 14:27 | 53.85183 | -0.43783 | 35442 ft | 489 kts | 127° |
| 2026-04-21 14:28 | 53.81008 | -0.34688 | 35445 ft | 489 kts | 127° |
| 2026-04-21 14:28 | 53.76830 | -0.25609 | 35434 ft | 489 kts | 127° |
| 2026-04-21 14:29 | 53.72647 | -0.16545 | 35425 ft | 490 kts | 128° |
| 2026-04-21 14:29 | 53.67999 | -0.08161 | 35435 ft | 490 kts | 143° |
| 2026-04-21 14:30 | 53.62335 | -0.01748 | 35440 ft | 490 kts | 148° |
| 2026-04-21 14:30 | 53.56642 | 0.04573 | 35433 ft | 490 kts | 146° |
| 2026-04-21 14:31 | 53.51137 | 0.11342 | 35422 ft | 491 kts | 136° |
| 2026-04-21 14:31 | 53.46338 | 0.19501 | 35425 ft | 491 kts | 134° |
| 2026-04-21 14:32 | 53.41570 | 0.27705 | 35421 ft | 491 kts | 134° |
| 2026-04-21 14:32 | 53.36794 | 0.35767 | 35409 ft | 491 kts | 135° |
| 2026-04-21 14:33 | 53.31962 | 0.43844 | 35420 ft | 491 kts | 135° |
| 2026-04-21 14:33 | 53.27122 | 0.51910 | 35430 ft | 492 kts | 135° |
| 2026-04-21 14:34 | 53.22282 | 0.59956 | 35411 ft | 491 kts | 135° |
| 2026-04-21 14:34 | 53.17440 | 0.67975 | 35416 ft | 490 kts | 135° |
| 2026-04-21 14:35 | 53.12597 | 0.75975 | 35409 ft | 490 kts | 135° |
| 2026-04-21 14:35 | 53.07757 | 0.83946 | 35414 ft | 490 kts | 135° |
| 2026-04-21 14:36 | 53.02907 | 0.91910 | 35407 ft | 490 kts | 135° |
| 2026-04-21 14:36 | 52.98399 | 1.00339 | 35404 ft | 489 kts | 122° |
| 2026-04-21 14:37 | 52.95412 | 1.10405 | 35422 ft | 487 kts | 108° |
| 2026-04-21 14:37 | 52.93097 | 1.20963 | 35402 ft | 488 kts | 108° |
| 2026-04-21 14:38 | 52.90756 | 1.31535 | 35406 ft | 489 kts | 109° |
| 2026-04-21 14:38 | 52.88363 | 1.42081 | 35405 ft | 489 kts | 109° |
| 2026-04-21 14:39 | 52.85944 | 1.52597 | 35421 ft | 489 kts | 109° |
| 2026-04-21 14:39 | 52.83517 | 1.63090 | 35402 ft | 487 kts | 109° |
| 2026-04-21 14:40 | 52.81095 | 1.73517 | 35391 ft | 485 kts | 109° |
| 2026-04-21 14:40 | 52.78669 | 1.83920 | 35397 ft | 484 kts | 109° |
| 2026-04-21 14:41 | 52.76241 | 1.94282 | 35392 ft | 484 kts | 109° |
| 2026-04-21 14:41 | 52.73805 | 2.04622 | 35395 ft | 483 kts | 109° |
| 2026-04-21 14:42 | 52.71358 | 2.14965 | 35387 ft | 484 kts | 109° |
| 2026-04-21 14:42 | 52.68903 | 2.25292 | 35381 ft | 484 kts | 110° |
| 2026-04-21 14:43 | 52.66453 | 2.35545 | 35387 ft | 484 kts | 109° |
| 2026-04-21 14:43 | 52.63980 | 2.45852 | 35371 ft | 484 kts | 109° |
| 2026-04-21 14:44 | 52.61493 | 2.56161 | 35380 ft | 484 kts | 110° |
| 2026-04-21 14:44 | 52.59003 | 2.66445 | 35364 ft | 484 kts | 109° |
| 2026-04-21 14:45 | 52.56503 | 2.76729 | 35378 ft | 483 kts | 110° |
| 2026-04-21 14:45 | 52.53892 | 2.86912 | 35361 ft | 485 kts | 115° |
| 2026-04-21 14:46 | 52.50684 | 2.96651 | 35368 ft | 485 kts | 117° |
| 2026-04-21 14:46 | 52.47342 | 3.06283 | 35352 ft | 486 kts | 118° |
| 2026-04-21 14:47 | 52.44022 | 3.15939 | 35357 ft | 486 kts | 117° |
| 2026-04-21 14:47 | 52.40734 | 3.25620 | 35342 ft | 487 kts | 117° |
| 2026-04-21 14:48 | 52.37467 | 3.35257 | 35338 ft | 487 kts | 117° |
| 2026-04-21 14:48 | 52.34154 | 3.44994 | 35331 ft | 487 kts | 117° |
| 2026-04-21 14:49 | 52.30877 | 3.54579 | 35336 ft | 485 kts | 117° |
| 2026-04-21 14:49 | 52.27582 | 3.64176 | 35324 ft | 483 kts | 117° |
| 2026-04-21 14:50 | 52.24834 | 3.72151 | 35325 ft | 482 kts | 117° |
| 2026-04-21 14:50 | 52.21012 | 3.83202 | 35320 ft | 482 kts | 118° |
| 2026-04-21 14:51 | 52.17711 | 3.92704 | 35322 ft | 483 kts | 118° |
| 2026-04-21 14:51 | 52.14389 | 4.02233 | 35327 ft | 482 kts | 118° |
| 2026-04-21 14:52 | 52.11075 | 4.11702 | 35314 ft | 482 kts | 118° |
| 2026-04-21 14:52 | 52.07747 | 4.21177 | 35311 ft | 482 kts | 118° |
| 2026-04-21 14:53 | 52.04418 | 4.30617 | 35300 ft | 482 kts | 118° |
| 2026-04-21 14:53 | 52.01087 | 4.40029 | 35296 ft | 482 kts | 118° |
| 2026-04-21 14:54 | 51.97734 | 4.49466 | 35295 ft | 482 kts | 118° |
| 2026-04-21 14:54 | 51.94379 | 4.58877 | 35280 ft | 483 kts | 118° |
| 2026-04-21 14:55 | 51.91006 | 4.68300 | 35299 ft | 484 kts | 118° |
| 2026-04-21 14:55 | 51.87618 | 4.77733 | 35298 ft | 485 kts | 118° |
| 2026-04-21 14:56 | 51.84210 | 4.87181 | 35303 ft | 486 kts | 118° |
| 2026-04-21 14:56 | 51.80800 | 4.96603 | 35281 ft | 485 kts | 118° |
| 2026-04-21 14:57 | 51.77389 | 5.05990 | 35285 ft | 484 kts | 119° |
| 2026-04-21 14:57 | 51.73974 | 5.15357 | 35287 ft | 484 kts | 119° |
| 2026-04-21 14:58 | 51.70578 | 5.24635 | 35287 ft | 483 kts | 119° |
| 2026-04-21 14:58 | 51.67155 | 5.33955 | 35288 ft | 484 kts | 119° |
| 2026-04-21 14:59 | 51.63716 | 5.43282 | 35278 ft | 484 kts | 119° |
| 2026-04-21 14:59 | 51.60269 | 5.52597 | 35268 ft | 484 kts | 119° |
| 2026-04-21 15:00 | 51.56819 | 5.61891 | 35267 ft | 484 kts | 119° |
| 2026-04-21 15:00 | 51.53367 | 5.71159 | 35291 ft | 484 kts | 119° |
| 2026-04-21 15:01 | 51.49960 | 5.80260 | 35303 ft | 484 kts | 119° |
| 2026-04-21 15:01 | 51.46486 | 5.89508 | 35273 ft | 484 kts | 119° |
| 2026-04-21 15:02 | 51.43008 | 5.98740 | 35265 ft | 483 kts | 119° |
| 2026-04-21 15:02 | 51.39524 | 6.07953 | 35262 ft | 484 kts | 120° |
| 2026-04-21 15:03 | 51.36027 | 6.17169 | 35266 ft | 485 kts | 120° |
| 2026-04-21 15:03 | 51.32520 | 6.26377 | 35276 ft | 485 kts | 120° |
| 2026-04-21 15:04 | 51.29002 | 6.35580 | 35267 ft | 485 kts | 120° |
| 2026-04-21 15:04 | 51.25481 | 6.44758 | 35264 ft | 484 kts | 120° |
| 2026-04-21 15:05 | 51.21957 | 6.53913 | 35267 ft | 484 kts | 120° |
| 2026-04-21 15:05 | 51.16659 | 6.67613 | 35280 ft | 483 kts | 120° |
| 2026-04-21 15:06 | 51.13123 | 6.76716 | 35258 ft | 484 kts | 120° |
| 2026-04-21 15:06 | 51.10174 | 6.84286 | 35260 ft | 484 kts | 120° |
| 2026-04-21 15:07 | 51.06617 | 6.93384 | 35237 ft | 485 kts | 120° |
| 2026-04-21 15:07 | 51.03041 | 7.02501 | 35236 ft | 486 kts | 120° |
| 2026-04-21 15:08 | 50.99459 | 7.11599 | 35253 ft | 486 kts | 121° |
| 2026-04-21 15:08 | 50.95870 | 7.20683 | 35248 ft | 485 kts | 121° |
| 2026-04-21 15:09 | 50.92280 | 7.29738 | 35237 ft | 485 kts | 121° |
| 2026-04-21 15:09 | 50.88688 | 7.38768 | 35238 ft | 484 kts | 121° |
| 2026-04-21 15:10 | 50.85093 | 7.47772 | 35239 ft | 484 kts | 121° |
| 2026-04-21 15:10 | 50.81506 | 7.56727 | 35239 ft | 483 kts | 121° |
| 2026-04-21 15:11 | 50.77901 | 7.65695 | 35223 ft | 483 kts | 121° |
| 2026-04-21 15:11 | 50.74293 | 7.74642 | 35220 ft | 483 kts | 121° |
| 2026-04-21 15:12 | 50.70677 | 7.83577 | 35212 ft | 483 kts | 121° |
| 2026-04-21 15:12 | 50.67060 | 7.92486 | 35216 ft | 482 kts | 121° |
| 2026-04-21 15:13 | 50.63609 | 8.00960 | 35220 ft | 483 kts | 121° |
| 2026-04-21 15:13 | 50.59810 | 8.08893 | 35241 ft | 485 kts | 134° |
| 2026-04-21 15:14 | 50.54456 | 8.15355 | 35244 ft | 487 kts | 147° |
| 2026-04-21 15:14 | 50.48683 | 8.20979 | 35232 ft | 488 kts | 148° |
| 2026-04-21 15:15 | 50.42972 | 8.26622 | 35235 ft | 489 kts | 147° |
| 2026-04-21 15:15 | 50.37207 | 8.32401 | 35222 ft | 489 kts | 147° |
| 2026-04-21 15:16 | 50.31498 | 8.38112 | 35219 ft | 490 kts | 147° |
| 2026-04-21 15:16 | 50.26259 | 8.44970 | 35224 ft | 490 kts | 131° |
| 2026-04-21 15:17 | 50.21698 | 8.52903 | 35213 ft | 490 kts | 131° |
| 2026-04-21 15:17 | 50.17163 | 8.60717 | 35212 ft | 491 kts | 131° |
| 2026-04-21 15:18 | 50.12519 | 8.68555 | 35215 ft | 491 kts | 132° |
| 2026-04-21 15:18 | 50.07835 | 8.76417 | 35205 ft | 491 kts | 132° |
| 2026-04-21 15:19 | 50.03082 | 8.83981 | 35211 ft | 492 kts | 136° |
| 2026-04-21 15:19 | 49.97984 | 8.91096 | 35207 ft | 493 kts | 138° |
| 2026-04-21 15:20 | 49.92845 | 8.98166 | 35200 ft | 494 kts | 137° |
| 2026-04-21 15:20 | 49.87739 | 9.05284 | 35190 ft | 494 kts | 137° |
| 2026-04-21 15:21 | 49.82637 | 9.12432 | 35193 ft | 494 kts | 137° |
| 2026-04-21 15:21 | 49.77529 | 9.19570 | 35191 ft | 495 kts | 137° |
| 2026-04-21 15:22 | 49.72408 | 9.26700 | 35190 ft | 496 kts | 137° |
| 2026-04-21 15:22 | 49.67268 | 9.33834 | 35186 ft | 497 kts | 137° |
| 2026-04-21 15:23 | 49.62104 | 9.40919 | 35187 ft | 497 kts | 141° |
| 2026-04-21 15:23 | 49.56298 | 9.46680 | 35189 ft | 497 kts | 150° |
| 2026-04-21 15:24 | 49.50313 | 9.51976 | 35183 ft | 497 kts | 150° |
| 2026-04-21 15:24 | 49.44346 | 9.57367 | 35181 ft | 497 kts | 149° |
| 2026-04-21 15:25 | 49.38403 | 9.62796 | 35180 ft | 497 kts | 149° |
| 2026-04-21 15:25 | 49.32652 | 9.68652 | 35160 ft | 497 kts | 138° |
| 2026-04-21 15:26 | 49.27757 | 9.76133 | 35179 ft | 498 kts | 134° |
| 2026-04-21 15:26 | 49.22914 | 9.83712 | 35193 ft | 498 kts | 134° |
| 2026-04-21 15:27 | 49.18011 | 9.91222 | 35185 ft | 498 kts | 135° |
| 2026-04-21 15:27 | 49.13095 | 9.98673 | 35178 ft | 498 kts | 135° |
| 2026-04-21 15:28 | 49.08174 | 10.06118 | 35169 ft | 498 kts | 135° |
| 2026-04-21 15:28 | 49.03194 | 10.13460 | 35184 ft | 499 kts | 137° |
| 2026-04-21 15:29 | 48.98051 | 10.20593 | 35190 ft | 500 kts | 137° |
| 2026-04-21 15:29 | 48.92944 | 10.27763 | 35197 ft | 500 kts | 137° |
| 2026-04-21 15:30 | 48.87844 | 10.34955 | 35182 ft | 500 kts | 137° |
| 2026-04-21 15:30 | 48.82744 | 10.42137 | 35189 ft | 500 kts | 136° |
| 2026-04-21 15:31 | 48.77974 | 10.49730 | 35183 ft | 501 kts | 132° |
| 2026-04-21 15:31 | 48.73243 | 10.57511 | 35191 ft | 502 kts | 133° |
| 2026-04-21 15:32 | 48.68398 | 10.65106 | 35180 ft | 502 kts | 134° |
| 2026-04-21 15:32 | 48.63550 | 10.72688 | 35168 ft | 502 kts | 134° |
| 2026-04-21 15:33 | 48.58752 | 10.80369 | 35163 ft | 502 kts | 133° |
| 2026-04-21 15:33 | 48.53961 | 10.88044 | 35168 ft | 503 kts | 134° |
| 2026-04-21 15:34 | 48.49160 | 10.95722 | 35158 ft | 503 kts | 134° |
| 2026-04-21 15:34 | 48.44314 | 11.03317 | 35160 ft | 503 kts | 135° |
| 2026-04-21 15:35 | 48.39431 | 11.10878 | 35156 ft | 503 kts | 135° |
| 2026-04-21 15:35 | 48.34554 | 11.18436 | 35155 ft | 503 kts | 135° |
| 2026-04-21 15:36 | 48.29752 | 11.25871 | 35142 ft | 503 kts | 135° |
| 2026-04-21 15:36 | 48.25183 | 11.33812 | 35122 ft | 503 kts | 122° |
| 2026-04-21 15:37 | 48.21728 | 11.42932 | 35133 ft | 503 kts | 118° |
| 2026-04-21 15:37 | 48.18347 | 11.52117 | 35133 ft | 503 kts | 118° |
| 2026-04-21 15:38 | 48.14918 | 11.61247 | 35147 ft | 503 kts | 119° |
| 2026-04-21 15:38 | 48.11454 | 11.70336 | 35141 ft | 503 kts | 119° |
| 2026-04-21 15:39 | 48.07976 | 11.79409 | 35142 ft | 502 kts | 120° |
| 2026-04-21 15:39 | 48.04498 | 11.88458 | 35139 ft | 502 kts | 120° |
| 2026-04-21 15:40 | 48.01013 | 11.97501 | 35129 ft | 503 kts | 120° |
| 2026-04-21 15:40 | 47.97512 | 12.06557 | 35135 ft | 504 kts | 120° |
| 2026-04-21 15:41 | 47.94021 | 12.15555 | 35134 ft | 505 kts | 120° |
| 2026-04-21 15:41 | 47.90496 | 12.24611 | 35126 ft | 506 kts | 120° |
| 2026-04-21 15:42 | 47.86954 | 12.33680 | 35132 ft | 506 kts | 120° |
| 2026-04-21 15:42 | 47.83393 | 12.42767 | 35140 ft | 511 kts | 120° |
| 2026-04-21 15:43 | 47.79794 | 12.51919 | 35133 ft | 513 kts | 120° |
| 2026-04-21 15:43 | 47.76191 | 12.61050 | 35128 ft | 511 kts | 120° |
| 2026-04-21 15:44 | 47.72591 | 12.70149 | 35132 ft | 511 kts | 121° |
| 2026-04-21 15:44 | 47.68940 | 12.79223 | 35149 ft | 512 kts | 124° |
| 2026-04-21 15:45 | 47.64264 | 12.87150 | 35170 ft | 511 kts | 137° |
| 2026-04-21 15:45 | 47.59146 | 12.94491 | 35146 ft | 512 kts | 137° |
| 2026-04-21 15:46 | 47.54051 | 13.01881 | 35137 ft | 513 kts | 136° |
| 2026-04-21 15:46 | 47.48996 | 13.09310 | 35123 ft | 513 kts | 136° |
| 2026-04-21 15:47 | 47.43935 | 13.16745 | 35107 ft | 515 kts | 137° |
| 2026-04-21 15:47 | 47.38828 | 13.24215 | 35126 ft | 518 kts | 137° |
| 2026-04-21 15:48 | 47.33939 | 13.31891 | 35115 ft | 517 kts | 127° |
| 2026-04-21 15:48 | 47.30423 | 13.41172 | 35120 ft | 516 kts | 111° |
| 2026-04-21 15:49 | 47.27839 | 13.51024 | 35101 ft | 516 kts | 110° |
| 2026-04-21 15:49 | 47.25260 | 13.60809 | 35102 ft | 516 kts | 111° |
| 2026-04-21 15:50 | 47.22590 | 13.70697 | 35080 ft | 516 kts | 111° |
| 2026-04-21 15:50 | 47.19924 | 13.80432 | 35079 ft | 517 kts | 112° |
| 2026-04-21 15:51 | 47.17231 | 13.90222 | 35078 ft | 517 kts | 112° |
| 2026-04-21 15:51 | 47.14529 | 14.00016 | 35068 ft | 518 kts | 111° |
| 2026-04-21 15:52 | 47.11814 | 14.09822 | 35067 ft | 519 kts | 112° |
| 2026-04-21 15:52 | 47.09544 | 14.17989 | 35079 ft | 520 kts | 112° |
| 2026-04-21 15:53 | 47.06786 | 14.27878 | 35045 ft | 521 kts | 112° |
| 2026-04-21 15:53 | 47.04032 | 14.37712 | 35048 ft | 521 kts | 112° |
| 2026-04-21 15:54 | 47.01273 | 14.47522 | 35048 ft | 521 kts | 112° |
| 2026-04-21 15:54 | 46.98521 | 14.57268 | 35064 ft | 521 kts | 112° |
| 2026-04-21 15:55 | 46.95742 | 14.67063 | 35055 ft | 521 kts | 112° |
| 2026-04-21 15:55 | 46.92960 | 14.76841 | 35062 ft | 521 kts | 112° |
| 2026-04-21 15:56 | 46.90169 | 14.86609 | 35068 ft | 520 kts | 112° |
| 2026-04-21 15:56 | 46.87371 | 14.96358 | 35067 ft | 520 kts | 112° |
| 2026-04-21 15:57 | 46.84641 | 15.05829 | 35076 ft | 520 kts | 112° |
| 2026-04-21 15:57 | 46.81835 | 15.15536 | 35091 ft | 519 kts | 112° |
| 2026-04-21 15:58 | 46.79013 | 15.25260 | 35094 ft | 520 kts | 113° |
| 2026-04-21 15:58 | 46.75977 | 15.34831 | 35074 ft | 521 kts | 119° |
| 2026-04-21 15:59 | 46.72313 | 15.43944 | 35086 ft | 522 kts | 122° |
| 2026-04-21 15:59 | 46.68546 | 15.52995 | 35080 ft | 523 kts | 122° |
| 2026-04-21 16:00 | 46.64816 | 15.62092 | 35082 ft | 522 kts | 121° |
| 2026-04-21 16:00 | 46.61135 | 15.71177 | 35070 ft | 520 kts | 121° |
| 2026-04-21 16:01 | 46.57459 | 15.80253 | 35080 ft | 521 kts | 121° |
| 2026-04-21 16:01 | 46.53806 | 15.89233 | 35077 ft | 521 kts | 121° |
| 2026-04-21 16:02 | 46.50082 | 15.98348 | 35078 ft | 521 kts | 121° |
| 2026-04-21 16:02 | 46.46405 | 16.07315 | 35073 ft | 521 kts | 121° |
| 2026-04-21 16:03 | 46.42698 | 16.16329 | 35075 ft | 521 kts | 122° |
| 2026-04-21 16:03 | 46.38974 | 16.25353 | 35088 ft | 522 kts | 122° |
| 2026-04-21 16:04 | 46.35243 | 16.34364 | 35075 ft | 522 kts | 122° |
| 2026-04-21 16:04 | 46.31504 | 16.43367 | 35069 ft | 522 kts | 122° |
| 2026-04-21 16:05 | 46.27753 | 16.52367 | 35064 ft | 522 kts | 122° |
| 2026-04-21 16:05 | 46.24004 | 16.61335 | 35072 ft | 522 kts | 122° |
| 2026-04-21 16:06 | 46.20235 | 16.70322 | 35058 ft | 523 kts | 122° |
| 2026-04-21 16:06 | 46.16457 | 16.79301 | 35058 ft | 523 kts | 123° |
| 2026-04-21 16:07 | 46.12672 | 16.88267 | 35063 ft | 524 kts | 123° |
| 2026-04-21 16:07 | 46.08870 | 16.97243 | 35060 ft | 526 kts | 123° |
| 2026-04-21 16:08 | 46.03127 | 17.10748 | 35064 ft | 528 kts | 123° |
| 2026-04-21 16:09 | 45.99280 | 17.19759 | 35056 ft | 529 kts | 123° |
| 2026-04-21 16:09 | 45.95418 | 17.28777 | 35057 ft | 529 kts | 123° |
| 2026-04-21 16:10 | 45.91556 | 17.37764 | 35053 ft | 529 kts | 123° |
| 2026-04-21 16:10 | 45.87679 | 17.46758 | 35052 ft | 529 kts | 123° |
| 2026-04-21 16:11 | 45.83805 | 17.55717 | 35053 ft | 529 kts | 123° |
| 2026-04-21 16:11 | 45.79920 | 17.64672 | 35025 ft | 529 kts | 123° |
| 2026-04-21 16:12 | 45.76682 | 17.72113 | 35042 ft | 530 kts | 124° |
| 2026-04-21 16:12 | 45.72117 | 17.82571 | 35053 ft | 531 kts | 124° |
| 2026-04-21 16:13 | 45.68194 | 17.91531 | 35058 ft | 531 kts | 124° |
| 2026-04-21 16:13 | 45.64265 | 18.00476 | 35047 ft | 531 kts | 124° |
| 2026-04-21 16:14 | 45.60616 | 18.09650 | 35044 ft | 532 kts | 114° |
| 2026-04-21 16:14 | 45.58591 | 18.19796 | 35055 ft | 532 kts | 100° |
| 2026-04-21 16:15 | 45.57219 | 18.30123 | 35033 ft | 533 kts | 100° |
| 2026-04-21 16:15 | 45.55803 | 18.40490 | 35042 ft | 534 kts | 101° |
| 2026-04-21 16:16 | 45.54315 | 18.50879 | 35042 ft | 534 kts | 101° |
| 2026-04-21 16:16 | 45.52799 | 18.61259 | 35045 ft | 534 kts | 101° |
| 2026-04-21 16:17 | 45.51274 | 18.71644 | 34864 ft | 538 kts | 102° |
| 2026-04-21 16:17 | 45.50518 | 18.76778 | 34419 ft | 531 kts | 102° |
| 2026-04-21 16:17 | 45.49763 | 18.81894 | 34024 ft | 524 kts | 102° |
| 2026-04-21 16:17 | 45.49015 | 18.86948 | 33555 ft | 518 kts | 102° |
| 2026-04-21 16:18 | 45.48274 | 18.91936 | 33095 ft | 512 kts | 102° |
| 2026-04-21 16:18 | 45.47539 | 18.96874 | 32642 ft | 507 kts | 102° |
| 2026-04-21 16:18 | 45.46806 | 19.01779 | 32197 ft | 503 kts | 102° |
| 2026-04-21 16:18 | 45.46079 | 19.06626 | 31765 ft | 498 kts | 102° |
| 2026-04-21 16:19 | 45.45357 | 19.11427 | 31337 ft | 495 kts | 102° |
| 2026-04-21 16:19 | 45.44638 | 19.16196 | 30914 ft | 491 kts | 102° |
| 2026-04-21 16:19 | 45.43921 | 19.20936 | 30499 ft | 487 kts | 102° |
| 2026-04-21 16:19 | 45.43208 | 19.25638 | 30082 ft | 484 kts | 102° |
| 2026-04-21 16:20 | 45.42499 | 19.30304 | 29595 ft | 481 kts | 102° |
| 2026-04-21 16:20 | 45.41779 | 19.34776 | 29119 ft | 477 kts | 108° |
| 2026-04-21 16:20 | 45.40386 | 19.38976 | 28609 ft | 466 kts | 129° |
| 2026-04-21 16:20 | 45.38306 | 19.42423 | 28165 ft | 451 kts | 146° |
| 2026-04-21 16:21 | 45.35802 | 19.44974 | 27722 ft | 438 kts | 156° |
| 2026-04-21 16:21 | 45.33208 | 19.47189 | 27274 ft | 433 kts | 157° |
| 2026-04-21 16:21 | 45.30630 | 19.49377 | 26826 ft | 431 kts | 156° |
| 2026-04-21 16:21 | 45.28082 | 19.51599 | 26386 ft | 429 kts | 156° |
| 2026-04-21 16:22 | 45.25580 | 19.53880 | 25920 ft | 428 kts | 154° |
| 2026-04-21 16:22 | 45.23131 | 19.56278 | 25491 ft | 427 kts | 153° |
| 2026-04-21 16:22 | 45.20718 | 19.58709 | 25082 ft | 424 kts | 152° |
| 2026-04-21 16:22 | 45.18327 | 19.61126 | 24660 ft | 421 kts | 152° |
| 2026-04-21 16:23 | 45.15937 | 19.63528 | 24252 ft | 419 kts | 153° |
| 2026-04-21 16:23 | 45.13563 | 19.65895 | 23854 ft | 416 kts | 153° |
| 2026-04-21 16:23 | 45.11200 | 19.68236 | 23428 ft | 413 kts | 153° |
| 2026-04-21 16:23 | 45.08848 | 19.70556 | 22950 ft | 411 kts | 153° |
| 2026-04-21 16:24 | 45.06508 | 19.72856 | 22487 ft | 408 kts | 152° |
| 2026-04-21 16:24 | 45.04181 | 19.75138 | 22028 ft | 406 kts | 152° |
| 2026-04-21 16:24 | 45.01873 | 19.77400 | 21576 ft | 403 kts | 152° |
| 2026-04-21 16:24 | 44.99584 | 19.79640 | 21136 ft | 401 kts | 151° |
| 2026-04-21 16:25 | 44.97297 | 19.81876 | 20698 ft | 399 kts | 151° |
| 2026-04-21 16:25 | 44.95020 | 19.84102 | 20261 ft | 397 kts | 150° |
| 2026-04-21 16:25 | 44.92760 | 19.86308 | 19829 ft | 395 kts | 150° |
| 2026-04-21 16:25 | 44.90503 | 19.88510 | 19410 ft | 393 kts | 150° |
| 2026-04-21 16:26 | 44.88260 | 19.90696 | 18994 ft | 391 kts | 149° |
| 2026-04-21 16:26 | 44.86031 | 19.92866 | 18583 ft | 389 kts | 149° |
| 2026-04-21 16:26 | 44.83841 | 19.94997 | 18166 ft | 387 kts | 149° |
| 2026-04-21 16:26 | 44.81605 | 19.97170 | 17695 ft | 384 kts | 148° |
| 2026-04-21 16:27 | 44.79412 | 19.99300 | 17249 ft | 382 kts | 148° |
| 2026-04-21 16:27 | 44.77259 | 20.01389 | 16783 ft | 380 kts | 149° |
| 2026-04-21 16:27 | 44.75083 | 20.03498 | 16333 ft | 378 kts | 148° |
| 2026-04-21 16:27 | 44.72927 | 20.05586 | 15904 ft | 376 kts | 148° |
| 2026-04-21 16:28 | 44.70782 | 20.07662 | 15474 ft | 373 kts | 148° |
| 2026-04-21 16:28 | 44.68647 | 20.09727 | 15050 ft | 371 kts | 148° |
| 2026-04-21 16:28 | 44.66529 | 20.11773 | 14622 ft | 368 kts | 148° |
| 2026-04-21 16:28 | 44.64427 | 20.13796 | 14206 ft | 365 kts | 148° |
| 2026-04-21 16:29 | 44.63037 | 20.15200 | 13920 ft | 364 kts | 141° |
| 2026-04-21 16:29 | 44.60933 | 20.18823 | 13311 ft | 363 kts | 118° |
| 2026-04-21 16:29 | 44.60068 | 20.22126 | 12861 ft | 360 kts | 101° |
| 2026-04-21 16:29 | 44.59869 | 20.25590 | 12427 ft | 355 kts | 88° |
| 2026-04-21 16:30 | 44.59941 | 20.29033 | 11976 ft | 352 kts | 86° |
| 2026-04-21 16:30 | 44.60055 | 20.32454 | 11539 ft | 349 kts | 85° |
| 2026-04-21 16:30 | 44.60175 | 20.35836 | 11097 ft | 345 kts | 85° |
| 2026-04-21 16:30 | 44.60299 | 20.39147 | 10630 ft | 334 kts | 85° |
| 2026-04-21 16:31 | 44.60418 | 20.42359 | 10178 ft | 325 kts | 85° |
| 2026-04-21 16:31 | 44.60533 | 20.45482 | 9722 ft | 316 kts | 85° |
| 2026-04-21 16:31 | 44.60644 | 20.48530 | 9231 ft | 309 kts | 85° |
| 2026-04-21 16:31 | 44.60749 | 20.51483 | 8750 ft | 302 kts | 86° |
| 2026-04-21 16:32 | 44.60525 | 20.54405 | 8260 ft | 299 kts | 106° |
| 2026-04-21 16:32 | 44.59642 | 20.57014 | 7804 ft | 295 kts | 122° |
| 2026-04-21 16:32 | 44.58495 | 20.59376 | 7352 ft | 290 kts | 125° |
| 2026-04-21 16:32 | 44.57335 | 20.61666 | 6883 ft | 286 kts | 125° |
| 2026-04-21 16:33 | 44.56187 | 20.63913 | 6454 ft | 284 kts | 125° |
| 2026-04-21 16:33 | 44.55033 | 20.66160 | 6039 ft | 283 kts | 125° |
| 2026-04-21 16:33 | 44.53913 | 20.68392 | 5587 ft | 277 kts | 122° |
| 2026-04-21 16:33 | 44.53102 | 20.70799 | 5111 ft | 270 kts | 103° |
| 2026-04-21 16:34 | 44.52978 | 20.73371 | 4642 ft | 264 kts | 81° |
| 2026-04-21 16:34 | 44.53545 | 20.75753 | 4169 ft | 255 kts | 57° |
| 2026-04-21 16:34 | 44.54692 | 20.77514 | 3994 ft | 235 kts | 31° |
| 2026-04-21 16:34 | 44.56158 | 20.78360 | 3962 ft | 225 kts | 6° |
| 2026-04-21 16:35 | 44.57687 | 20.78217 | 3963 ft | 222 kts | 341° |
| 2026-04-21 16:35 | 44.59135 | 20.77438 | 3965 ft | 225 kts | 336° |
| 2026-04-21 16:35 | 44.60562 | 20.76583 | 3966 ft | 222 kts | 336° |
| 2026-04-21 16:35 | 44.61880 | 20.75527 | 3948 ft | 218 kts | 315° |
| 2026-04-21 16:36 | 44.62802 | 20.73844 | 3977 ft | 220 kts | 305° |
| 2026-04-21 16:36 | 44.63681 | 20.72057 | 3983 ft | 223 kts | 304° |
| 2026-04-21 16:36 | 44.64521 | 20.70247 | 3971 ft | 220 kts | 303° |
| 2026-04-21 16:36 | 44.65326 | 20.68447 | 3964 ft | 217 kts | 302° |
| 2026-04-21 16:37 | 44.66120 | 20.66649 | 3969 ft | 216 kts | 302° |
| 2026-04-21 16:37 | 44.66909 | 20.64850 | 3957 ft | 216 kts | 303° |
| 2026-04-21 16:37 | 44.67685 | 20.63081 | 3955 ft | 212 kts | 303° |
| 2026-04-21 16:37 | 44.68459 | 20.61315 | 3975 ft | 208 kts | 303° |
| 2026-04-21 16:38 | 44.69204 | 20.59617 | 3974 ft | 210 kts | 303° |
| 2026-04-21 16:38 | 44.69979 | 20.57852 | 3984 ft | 212 kts | 303° |
| 2026-04-21 16:38 | 44.70749 | 20.56097 | 3979 ft | 207 kts | 303° |
| 2026-04-21 16:38 | 44.71235 | 20.54991 | 3980 ft | 195 kts | 303° |
| 2026-04-21 16:39 | 44.71930 | 20.53409 | 3833 ft | 186 kts | 303° |
| 2026-04-21 16:39 | 44.72601 | 20.51882 | 3599 ft | 179 kts | 303° |
| 2026-04-21 16:39 | 44.73251 | 20.50404 | 3362 ft | 174 kts | 303° |
| 2026-04-21 16:39 | 44.73867 | 20.49003 | 3138 ft | 163 kts | 303° |
| 2026-04-21 16:40 | 44.74455 | 20.47671 | 2908 ft | 156 kts | 303° |
| 2026-04-21 16:40 | 44.75012 | 20.46403 | 2694 ft | 149 kts | 303° |
| 2026-04-21 16:40 | 44.75543 | 20.45198 | 2511 ft | 143 kts | 303° |
| 2026-04-21 16:40 | 44.76056 | 20.44033 | 2352 ft | 136 kts | 303° |
| 2026-04-21 16:41 | 44.76551 | 20.42908 | 2158 ft | 137 kts | 303° |
| 2026-04-21 16:41 | 44.77059 | 20.41760 | 1924 ft | 140 kts | 303° |
| 2026-04-21 16:41 | 44.77572 | 20.40595 | 1761 ft | 141 kts | 302° |
| 2026-04-21 16:41 | 44.78089 | 20.39419 | 1558 ft | 140 kts | 303° |
| 2026-04-21 16:42 | 44.78609 | 20.38244 | 1373 ft | 142 kts | 303° |
| 2026-04-21 16:42 | 44.79129 | 20.37063 | 1165 ft | 142 kts | 301° |
| 2026-04-21 16:42 | 44.79652 | 20.35881 | 977 ft | 144 kts | 300° |
| 2026-04-21 16:42 | 44.80178 | 20.34685 | 776 ft | 143 kts | 299° |
| 2026-04-21 16:43 | 44.80704 | 20.33498 | 528 ft | 142 kts | 300° |
| 2026-04-21 16:43 | 44.81219 | 20.32352 | 366 ft | 135 kts | 298° |
| 2026-04-21 16:43 | 44.81671 | 20.31307 | 330 ft | 117 kts | 302° |
| 2026-04-21 16:43 | 44.82043 | 20.30469 | 328 ft | 86 kts | 301° |
| 2026-04-21 16:44 | 44.82289 | 20.29912 | 327 ft | 35 kts | 303° |
| 2026-04-21 16:44 | 44.82321 | 20.29726 | 326 ft | 13 kts | 222° |
| 2026-04-21 16:44 | 44.82277 | 20.29685 | 327 ft | 6 kts | 211° |
| 2026-04-21 16:44 | 44.82242 | 20.29655 | 326 ft | 5 kts | 210° |
| 2026-04-21 16:45 | 44.82214 | 20.29632 | 327 ft | 4 kts | 210° |
| 2026-04-21 16:45 | 44.82194 | 20.29615 | 327 ft | 1 kts | 210° |
| 2026-04-21 16:45 | 44.82188 | 20.29610 | 327 ft | 1 kts | 210° |
| 2026-04-21 16:45 | 44.82156 | 20.29582 | 325 ft | 8 kts | 214° |
| 2026-04-21 16:46 | 44.82104 | 20.29531 | 325 ft | 10 kts | 214° |
| 2026-04-21 16:46 | 44.82044 | 20.29479 | 326 ft | 11 kts | 211° |
| 2026-04-21 16:46 | 44.81980 | 20.29423 | 325 ft | 11 kts | 211° |
| 2026-04-21 16:46 | 44.81916 | 20.29362 | 325 ft | 11 kts | 213° |
| 2026-04-21 16:47 | 44.81849 | 20.29305 | 327 ft | 12 kts | 211° |
| 2026-04-21 16:47 | 44.81793 | 20.29247 | 325 ft | 7 kts | 248° |
| 2026-04-21 16:47 | 44.81806 | 20.29192 | 326 ft | 6 kts | 303° |
| 2026-04-21 16:47 | 44.81817 | 20.29168 | 327 ft | 0 kts | 302° |
| 2026-04-21 17:12 | 44.81817 | 20.29169 | 327 ft | 0 kts | 302° |
| 2026-04-21 17:43 | 44.81816 | 20.29169 | 327 ft | 0 kts | 302° |
| 2026-04-21 17:44 | 44.81816 | 20.29170 | 327 ft | 0 kts | 302° |